sensor_id;sensor_type;location;lat;lon;timestamp;pressure;altitude;pressure_sealevel;temperature;humidity
64713;BME280;51140;45.340;5.980;2023-02-12T00:02:05;99694.63;;;-0.52;100.00
64713;BME280;51140;45.340;5.980;2023-02-12T00:04:31;99701.38;;;-0.57;100.00
64713;BME280;51140;45.340;5.980;2023-02-12T00:06:56;99709.06;;;-0.57;100.00
64713;BME280;51140;45.340;5.980;2023-02-12T00:09:22;99704.84;;;-0.54;100.00
64713;BME280;51140;45.340;5.980;2023-02-12T00:11:47;99709.09;;;-0.54;100.00
64713;BME280;51140;45.340;5.980;2023-02-12T00:14:12;99717.69;;;-0.52;100.00
64713;BME280;51140;45.340;5.980;2023-02-12T00:16:38;99709.28;;;-0.44;100.00
64713;BME280;51140;45.340;5.980;2023-02-12T00:19:03;99714.81;;;-0.69;100.00
64713;BME280;51140;45.340;5.980;2023-02-12T00:21:28;99725.09;;;-0.68;100.00
64713;BME280;51140;45.340;5.980;2023-02-12T00:23:54;99731.22;;;-0.59;100.00
64713;BME280;51140;45.340;5.980;2023-02-12T00:26:20;99717.75;;;-0.48;100.00
64713;BME280;51140;45.340;5.980;2023-02-12T00:28:46;99709.19;;;-0.50;100.00
64713;BME280;51140;45.340;5.980;2023-02-12T00:31:14;99709.91;;;-0.57;100.00
64713;BME280;51140;45.340;5.980;2023-02-12T00:33:40;99720.09;;;-0.60;100.00
64713;BME280;51140;45.340;5.980;2023-02-12T00:36:06;99729.41;;;-0.65;100.00
64713;BME280;51140;45.340;5.980;2023-02-12T00:38:32;99731.84;;;-0.71;100.00
64713;BME280;51140;45.340;5.980;2023-02-12T00:40:57;99731.03;;;-0.69;100.00
64713;BME280;51140;45.340;5.980;2023-02-12T00:43:23;99732.72;;;-0.71;100.00
64713;BME280;51140;45.340;5.980;2023-02-12T00:45:48;99747.16;;;-0.74;100.00
64713;BME280;51140;45.340;5.980;2023-02-12T00:48:14;99748.53;;;-0.90;100.00
64713;BME280;51140;45.340;5.980;2023-02-12T00:50:40;99748.34;;;-0.99;100.00
64713;BME280;51140;45.340;5.980;2023-02-12T00:53:06;99762.19;;;-0.89;100.00
64713;BME280;51140;45.340;5.980;2023-02-12T00:55:32;99766.59;;;-0.82;100.00
64713;BME280;51140;45.340;5.980;2023-02-12T00:57:58;99777.25;;;-1.03;100.00
64713;BME280;51140;45.340;5.980;2023-02-12T01:00:24;99771.91;;;-1.15;100.00
64713;BME280;51140;45.340;5.980;2023-02-12T01:02:50;99778.53;;;-1.23;100.00
64713;BME280;51140;45.340;5.980;2023-02-12T01:05:15;99786.69;;;-1.40;100.00
64713;BME280;51140;45.340;5.980;2023-02-12T01:07:41;99788.22;;;-1.48;100.00
64713;BME280;51140;45.340;5.980;2023-02-12T01:10:07;99788.34;;;-1.42;100.00
64713;BME280;51140;45.340;5.980;2023-02-12T01:12:33;99785.88;;;-1.39;100.00
64713;BME280;51140;45.340;5.980;2023-02-12T01:14:58;99786.72;;;-1.38;100.00
64713;BME280;51140;45.340;5.980;2023-02-12T01:17:23;99803.06;;;-1.32;100.00
64713;BME280;51140;45.340;5.980;2023-02-12T01:19:49;99815.06;;;-1.28;100.00
64713;BME280;51140;45.340;5.980;2023-02-12T01:22:14;99815.78;;;-1.35;100.00
64713;BME280;51140;45.340;5.980;2023-02-12T01:24:40;99831.25;;;-1.29;100.00
64713;BME280;51140;45.340;5.980;2023-02-12T01:27:05;99838.03;;;-1.31;100.00
64713;BME280;51140;45.340;5.980;2023-02-12T01:29:30;99834.56;;;-1.33;100.00
64713;BME280;51140;45.340;5.980;2023-02-12T01:31:56;99828.66;;;-1.30;100.00
64713;BME280;51140;45.340;5.980;2023-02-12T01:34:21;99803.94;;;-1.31;100.00
64713;BME280;51140;45.340;5.980;2023-02-12T01:36:46;99810.66;;;-1.35;100.00
64713;BME280;51140;45.340;5.980;2023-02-12T01:39:12;99804.41;;;-1.47;100.00
64713;BME280;51140;45.340;5.980;2023-02-12T01:41:43;99812.91;;;-1.48;100.00
64713;BME280;51140;45.340;5.980;2023-02-12T01:46:41;99837.50;;;-1.53;100.00
64713;BME280;51140;45.340;5.980;2023-02-12T01:49:31;99834.34;;;-1.43;100.00
64713;BME280;51140;45.340;5.980;2023-02-12T01:52:02;99830.22;;;-1.37;100.00
64713;BME280;51140;45.340;5.980;2023-02-12T01:54:29;99803.22;;;-1.24;100.00
64713;BME280;51140;45.340;5.980;2023-02-12T01:56:58;99793.06;;;-1.21;100.00
64713;BME280;51140;45.340;5.980;2023-02-12T01:59:24;99800.84;;;-1.16;100.00
64713;BME280;51140;45.340;5.980;2023-02-12T02:01:50;99787.75;;;-1.30;100.00
64713;BME280;51140;45.340;5.980;2023-02-12T02:04:19;99799.63;;;-1.32;100.00
64713;BME280;51140;45.340;5.980;2023-02-12T02:06:50;99783.47;;;-1.31;100.00
64713;BME280;51140;45.340;5.980;2023-02-12T02:09:17;99747.34;;;-1.07;100.00
64713;BME280;51140;45.340;5.980;2023-02-12T02:11:43;99732.00;;;-1.07;100.00
64713;BME280;51140;45.340;5.980;2023-02-12T02:14:27;99728.44;;;-1.15;100.00
64713;BME280;51140;45.340;5.980;2023-02-12T02:17:30;99732.50;;;-1.23;100.00
64713;BME280;51140;45.340;5.980;2023-02-12T02:28:40;99751.75;;;-1.41;100.00
64713;BME280;51140;45.340;5.980;2023-02-12T02:31:19;99750.84;;;-1.43;100.00
64713;BME280;51140;45.340;5.980;2023-02-12T02:36:43;99740.56;;;-1.46;100.00
64713;BME280;51140;45.340;5.980;2023-02-12T02:42:20;99738.00;;;-1.46;100.00
64713;BME280;51140;45.340;5.980;2023-02-12T02:45:10;99736.34;;;-1.44;100.00
64713;BME280;51140;45.340;5.980;2023-02-12T02:47:44;99721.09;;;-1.39;100.00
64713;BME280;51140;45.340;5.980;2023-02-12T02:53:09;99719.47;;;-1.75;100.00
64713;BME280;51140;45.340;5.980;2023-02-12T02:55:39;99720.31;;;-1.74;100.00
64713;BME280;51140;45.340;5.980;2023-02-12T02:59:04;99736.34;;;-1.81;100.00
64713;BME280;51140;45.340;5.980;2023-02-12T03:01:35;99739.66;;;-1.85;100.00
64713;BME280;51140;45.340;5.980;2023-02-12T03:04:06;99760.50;;;-2.03;100.00
64713;BME280;51140;45.340;5.980;2023-02-12T03:09:18;99770.47;;;-2.14;100.00
64713;BME280;51140;45.340;5.980;2023-02-12T03:11:46;99778.75;;;-2.23;100.00
64713;BME280;51140;45.340;5.980;2023-02-12T03:14:19;99777.97;;;-2.20;100.00
64713;BME280;51140;45.340;5.980;2023-02-12T03:16:58;99781.38;;;-2.19;100.00
64713;BME280;51140;45.340;5.980;2023-02-12T03:19:27;99790.84;;;-2.15;100.00
64713;BME280;51140;45.340;5.980;2023-02-12T03:22:00;99798.13;;;-2.31;100.00
64713;BME280;51140;45.340;5.980;2023-02-12T03:24:38;99819.06;;;-2.42;100.00
64713;BME280;51140;45.340;5.980;2023-02-12T03:27:26;99828.34;;;-2.44;100.00
64713;BME280;51140;45.340;5.980;2023-02-12T03:29:53;99829.25;;;-2.42;100.00
64713;BME280;51140;45.340;5.980;2023-02-12T03:35:31;99819.97;;;-2.40;100.00
64713;BME280;51140;45.340;5.980;2023-02-12T03:38:36;99820.97;;;-2.67;100.00
64713;BME280;51140;45.340;5.980;2023-02-12T03:41:30;99827.53;;;-2.75;100.00
64713;BME280;51140;45.340;5.980;2023-02-12T03:44:07;99854.38;;;-2.58;100.00
64713;BME280;51140;45.340;5.980;2023-02-12T03:46:45;99861.41;;;-2.49;100.00
64713;BME280;51140;45.340;5.980;2023-02-12T03:49:36;99865.56;;;-2.53;100.00
64713;BME280;51140;45.340;5.980;2023-02-12T03:52:03;99870.47;;;-2.60;100.00
64713;BME280;51140;45.340;5.980;2023-02-12T03:54:28;99871.09;;;-2.67;100.00
64713;BME280;51140;45.340;5.980;2023-02-12T03:57:04;99870.06;;;-2.74;100.00
64713;BME280;51140;45.340;5.980;2023-02-12T03:59:34;99876.25;;;-2.66;100.00
64713;BME280;51140;45.340;5.980;2023-02-12T04:02:00;99873.09;;;-2.57;100.00
64713;BME280;51140;45.340;5.980;2023-02-12T04:04:26;99876.88;;;-2.43;100.00
64713;BME280;51140;45.340;5.980;2023-02-12T04:06:52;99882.22;;;-2.35;100.00
64713;BME280;51140;45.340;5.980;2023-02-12T04:09:19;99881.09;;;-2.45;100.00
64713;BME280;51140;45.340;5.980;2023-02-12T04:11:58;99881.63;;;-2.57;100.00
64713;BME280;51140;45.340;5.980;2023-02-12T04:14:54;99891.84;;;-2.55;100.00
64713;BME280;51140;45.340;5.980;2023-02-12T04:25:47;99899.38;;;-2.60;100.00
64713;BME280;51140;45.340;5.980;2023-02-12T04:30:56;99896.66;;;-2.66;100.00
64713;BME280;51140;45.340;5.980;2023-02-12T04:33:27;99890.75;;;-2.65;100.00
64713;BME280;51140;45.340;5.980;2023-02-12T04:36:20;99889.88;;;-2.65;100.00
64713;BME280;51140;45.340;5.980;2023-02-12T04:38:51;99895.09;;;-2.61;100.00
64713;BME280;51140;45.340;5.980;2023-02-12T04:41:18;99896.34;;;-2.76;100.00
64713;BME280;51140;45.340;5.980;2023-02-12T04:43:44;99905.06;;;-2.70;100.00
64713;BME280;51140;45.340;5.980;2023-02-12T04:46:09;99913.66;;;-2.66;100.00
64713;BME280;51140;45.340;5.980;2023-02-12T04:48:49;99906.91;;;-2.64;100.00
64713;BME280;51140;45.340;5.980;2023-02-12T04:51:16;99916.50;;;-2.56;100.00
64713;BME280;51140;45.340;5.980;2023-02-12T04:53:41;99919.72;;;-2.63;100.00
64713;BME280;51140;45.340;5.980;2023-02-12T04:56:10;99910.25;;;-2.67;100.00
64713;BME280;51140;45.340;5.980;2023-02-12T04:58:35;99928.13;;;-2.65;100.00
64713;BME280;51140;45.340;5.980;2023-02-12T05:01:02;99930.47;;;-2.73;100.00
64713;BME280;51140;45.340;5.980;2023-02-12T05:03:27;99954.69;;;-2.59;100.00
64713;BME280;51140;45.340;5.980;2023-02-12T05:05:52;99947.31;;;-2.49;100.00
64713;BME280;51140;45.340;5.980;2023-02-12T05:08:18;99949.19;;;-2.42;100.00
64713;BME280;51140;45.340;5.980;2023-02-12T05:10:43;99939.13;;;-2.39;100.00
64713;BME280;51140;45.340;5.980;2023-02-12T05:13:09;99930.72;;;-2.35;100.00
64713;BME280;51140;45.340;5.980;2023-02-12T05:15:37;99918.78;;;-2.36;100.00
64713;BME280;51140;45.340;5.980;2023-02-12T05:18:03;99909.41;;;-2.37;100.00
64713;BME280;51140;45.340;5.980;2023-02-12T05:20:28;99911.13;;;-2.36;100.00
64713;BME280;51140;45.340;5.980;2023-02-12T05:22:54;99905.13;;;-2.38;100.00
64713;BME280;51140;45.340;5.980;2023-02-12T05:25:20;99897.41;;;-2.40;100.00
64713;BME280;51140;45.340;5.980;2023-02-12T05:27:45;99891.50;;;-2.39;100.00
64713;BME280;51140;45.340;5.980;2023-02-12T05:30:11;99896.59;;;-2.39;100.00
64713;BME280;51140;45.340;5.980;2023-02-12T05:32:37;99895.44;;;-2.48;100.00
64713;BME280;51140;45.340;5.980;2023-02-12T05:35:02;99898.69;;;-2.54;100.00
64713;BME280;51140;45.340;5.980;2023-02-12T05:37:28;99891.69;;;-2.61;100.00
64713;BME280;51140;45.340;5.980;2023-02-12T05:39:55;99884.22;;;-2.55;100.00
64713;BME280;51140;45.340;5.980;2023-02-12T05:42:21;99891.16;;;-2.49;100.00
64713;BME280;51140;45.340;5.980;2023-02-12T05:44:46;99892.91;;;-2.48;100.00
64713;BME280;51140;45.340;5.980;2023-02-12T05:47:11;99896.19;;;-2.53;100.00
64713;BME280;51140;45.340;5.980;2023-02-12T05:49:37;99887.19;;;-2.70;100.00
64713;BME280;51140;45.340;5.980;2023-02-12T05:52:02;99883.66;;;-2.75;100.00
64713;BME280;51140;45.340;5.980;2023-02-12T05:54:28;99880.53;;;-2.65;100.00
64713;BME280;51140;45.340;5.980;2023-02-12T05:56:53;99879.63;;;-2.67;100.00
64713;BME280;51140;45.340;5.980;2023-02-12T05:59:20;99873.38;;;-2.78;100.00
64713;BME280;51140;45.340;5.980;2023-02-12T06:01:47;99886.25;;;-2.73;100.00
64713;BME280;51140;45.340;5.980;2023-02-12T06:04:21;99886.72;;;-2.85;100.00
64713;BME280;51140;45.340;5.980;2023-02-12T06:06:48;99879.03;;;-2.87;100.00
64713;BME280;51140;45.340;5.980;2023-02-12T06:09:14;99884.47;;;-3.04;100.00
64713;BME280;51140;45.340;5.980;2023-02-12T06:11:39;99896.44;;;-3.02;100.00
64713;BME280;51140;45.340;5.980;2023-02-12T06:14:06;99895.72;;;-2.98;100.00
64713;BME280;51140;45.340;5.980;2023-02-12T06:16:33;99899.16;;;-2.96;100.00
64713;BME280;51140;45.340;5.980;2023-02-12T06:19:01;99903.63;;;-2.89;100.00
64713;BME280;51140;45.340;5.980;2023-02-12T06:21:27;99911.31;;;-2.87;100.00
64713;BME280;51140;45.340;5.980;2023-02-12T06:23:53;99913.03;;;-2.86;100.00
64713;BME280;51140;45.340;5.980;2023-02-12T06:26:19;99924.16;;;-2.84;100.00
64713;BME280;51140;45.340;5.980;2023-02-12T06:28:45;99927.63;;;-2.82;100.00
64713;BME280;51140;45.340;5.980;2023-02-12T06:33:47;99898.09;;;-2.75;100.00
64713;BME280;51140;45.340;5.980;2023-02-12T06:36:13;99888.94;;;-2.69;100.00
64713;BME280;51140;45.340;5.980;2023-02-12T06:38:38;99882.84;;;-2.74;100.00
64713;BME280;51140;45.340;5.980;2023-02-12T06:41:04;99885.47;;;-2.71;100.00
64713;BME280;51140;45.340;5.980;2023-02-12T06:43:29;99883.09;;;-2.65;100.00
64713;BME280;51140;45.340;5.980;2023-02-12T06:45:55;99896.66;;;-2.66;100.00
64713;BME280;51140;45.340;5.980;2023-02-12T06:48:20;99905.44;;;-2.85;100.00
64713;BME280;51140;45.340;5.980;2023-02-12T06:50:46;99910.19;;;-2.97;100.00
64713;BME280;51140;45.340;5.980;2023-02-12T06:53:11;99906.63;;;-3.02;100.00
64713;BME280;51140;45.340;5.980;2023-02-12T06:55:37;99913.50;;;-2.99;100.00
64713;BME280;51140;45.340;5.980;2023-02-12T06:58:03;99903.44;;;-2.95;100.00
64713;BME280;51140;45.340;5.980;2023-02-12T07:00:28;99899.56;;;-2.82;100.00
64713;BME280;51140;45.340;5.980;2023-02-12T07:02:54;99907.44;;;-2.76;100.00
64713;BME280;51140;45.340;5.980;2023-02-12T07:05:21;99903.59;;;-2.62;100.00
64713;BME280;51140;45.340;5.980;2023-02-12T07:07:46;99892.97;;;-2.45;100.00
64713;BME280;51140;45.340;5.980;2023-02-12T07:10:12;99878.16;;;-2.59;100.00
64713;BME280;51140;45.340;5.980;2023-02-12T07:12:37;99888.16;;;-2.66;100.00
64713;BME280;51140;45.340;5.980;2023-02-12T07:15:03;99881.41;;;-2.64;100.00
64713;BME280;51140;45.340;5.980;2023-02-12T07:17:29;99885.56;;;-2.68;100.00
64713;BME280;51140;45.340;5.980;2023-02-12T07:19:55;99889.97;;;-2.62;100.00
64713;BME280;51140;45.340;5.980;2023-02-12T07:22:20;99878.25;;;-2.56;100.00
64713;BME280;51140;45.340;5.980;2023-02-12T07:24:46;99881.56;;;-2.58;100.00
64713;BME280;51140;45.340;5.980;2023-02-12T07:27:12;99888.94;;;-2.69;100.00
64713;BME280;51140;45.340;5.980;2023-02-12T07:29:37;99884.44;;;-2.77;100.00
64713;BME280;51140;45.340;5.980;2023-02-12T07:32:03;99892.13;;;-2.76;100.00
64713;BME280;51140;45.340;5.980;2023-02-12T07:34:28;99890.75;;;-2.65;100.00
64713;BME280;51140;45.340;5.980;2023-02-12T07:36:54;99887.75;;;-2.50;100.00
64713;BME280;51140;45.340;5.980;2023-02-12T07:39:19;99888.81;;;-2.42;100.00
64713;BME280;51140;45.340;5.980;2023-02-12T07:41:44;99898.44;;;-2.33;100.00
64713;BME280;51140;45.340;5.980;2023-02-12T07:44:11;99902.78;;;-2.31;100.00
64713;BME280;51140;45.340;5.980;2023-02-12T07:46:40;99901.97;;;-2.28;100.00
64713;BME280;51140;45.340;5.980;2023-02-12T07:49:06;99894.38;;;-2.27;100.00
64713;BME280;51140;45.340;5.980;2023-02-12T07:51:35;99889.84;;;-2.37;100.00
64713;BME280;51140;45.340;5.980;2023-02-12T07:54:02;99896.59;;;-2.39;100.00
64713;BME280;51140;45.340;5.980;2023-02-12T07:56:30;99896.63;;;-2.37;100.00
64713;BME280;51140;45.340;5.980;2023-02-12T07:59:02;99890.50;;;-2.42;100.00
64713;BME280;51140;45.340;5.980;2023-02-12T08:01:30;99891.53;;;-2.37;100.00
64713;BME280;51140;45.340;5.980;2023-02-12T08:04:04;99893.38;;;-2.32;100.00
64713;BME280;51140;45.340;5.980;2023-02-12T08:06:31;99880.16;;;-2.17;100.00
64713;BME280;51140;45.340;5.980;2023-02-12T08:08:59;99881.41;;;-2.01;100.00
64713;BME280;51140;45.340;5.980;2023-02-12T08:11:27;99873.19;;;-1.91;100.00
64713;BME280;51140;45.340;5.980;2023-02-12T08:13:52;99876.88;;;-1.80;100.00
64713;BME280;51140;45.340;5.980;2023-02-12T08:16:20;99871.88;;;-1.75;100.00
64713;BME280;51140;45.340;5.980;2023-02-12T08:18:46;99879.56;;;-1.74;100.00
64713;BME280;51140;45.340;5.980;2023-02-12T08:21:14;99876.16;;;-1.74;100.00
64713;BME280;51140;45.340;5.980;2023-02-12T08:23:40;99873.88;;;-1.64;100.00
64713;BME280;51140;45.340;5.980;2023-02-12T08:26:14;99869.94;;;-1.51;100.00
64713;BME280;51140;45.340;5.980;2023-02-12T08:28:46;99877.63;;;-1.49;100.00
64713;BME280;51140;45.340;5.980;2023-02-12T08:31:14;99857.19;;;-1.49;100.00
64713;BME280;51140;45.340;5.980;2023-02-12T08:33:40;99856.34;;;-1.50;100.00
64713;BME280;51140;45.340;5.980;2023-02-12T08:36:07;99861.28;;;-1.56;100.00
64713;BME280;51140;45.340;5.980;2023-02-12T08:38:38;99875.88;;;-1.52;100.00
64713;BME280;51140;45.340;5.980;2023-02-12T08:41:15;99879.19;;;-1.56;100.00
64713;BME280;51140;45.340;5.980;2023-02-12T08:43:41;99860.53;;;-1.52;100.00
64713;BME280;51140;45.340;5.980;2023-02-12T08:48:34;99842.72;;;-1.49;100.00
64713;BME280;51140;45.340;5.980;2023-02-12T08:51:04;99833.47;;;-1.44;100.00
64713;BME280;51140;45.340;5.980;2023-02-12T08:53:30;99820.81;;;-1.38;100.00
64713;BME280;51140;45.340;5.980;2023-02-12T08:55:55;99811.53;;;-1.34;100.00
64713;BME280;51140;45.340;5.980;2023-02-12T08:58:21;99806.41;;;-1.34;100.00
64713;BME280;51140;45.340;5.980;2023-02-12T09:00:46;99799.66;;;-1.31;100.00
64713;BME280;51140;45.340;5.980;2023-02-12T09:03:11;99808.28;;;-1.27;100.00
64713;BME280;51140;45.340;5.980;2023-02-12T09:05:38;99816.81;;;-1.27;100.00
64713;BME280;51140;45.340;5.980;2023-02-12T09:08:04;99822.81;;;-1.24;100.00
64713;BME280;51140;45.340;5.980;2023-02-12T09:10:30;99829.69;;;-1.22;100.00
64713;BME280;51140;45.340;5.980;2023-02-12T09:12:55;99827.16;;;-1.20;100.00
64713;BME280;51140;45.340;5.980;2023-02-12T09:15:20;99826.38;;;-1.19;100.00
64713;BME280;51140;45.340;5.980;2023-02-12T09:17:46;99822.94;;;-1.20;100.00
64713;BME280;51140;45.340;5.980;2023-02-12T09:20:11;99816.25;;;-1.13;100.00
64713;BME280;51140;45.340;5.980;2023-02-12T09:22:36;99807.81;;;-1.09;100.00
64713;BME280;51140;45.340;5.980;2023-02-12T09:25:04;99806.19;;;-1.06;100.00
64713;BME280;51140;45.340;5.980;2023-02-12T09:27:30;99816.56;;;-0.98;100.00
64713;BME280;51140;45.340;5.980;2023-02-12T09:29:55;99823.59;;;-0.88;100.00
64713;BME280;51140;45.340;5.980;2023-02-12T09:32:21;99816.97;;;-0.80;100.00
64713;BME280;51140;45.340;5.980;2023-02-12T09:34:46;99800.94;;;-0.71;100.00
64713;BME280;51140;45.340;5.980;2023-02-12T09:37:11;99783.28;;;-0.57;100.00
64713;BME280;51140;45.340;5.980;2023-02-12T09:39:37;99772.41;;;-0.46;100.00
64713;BME280;51140;45.340;5.980;2023-02-12T09:44:44;99752.16;;;-0.34;100.00
64713;BME280;51140;45.340;5.980;2023-02-12T09:47:31;99728.56;;;-0.16;100.00
64713;BME280;51140;45.340;5.980;2023-02-12T09:50:04;99716.28;;;0.18;100.00
64713;BME280;51140;45.340;5.980;2023-02-12T09:52:34;99681.31;;;0.23;100.00
64713;BME280;51140;45.340;5.980;2023-02-12T09:54:59;99658.25;;;0.23;100.00
64713;BME280;51140;45.340;5.980;2023-02-12T09:57:36;99653.31;;;0.37;100.00
64713;BME280;51140;45.340;5.980;2023-02-12T10:00:28;99652.47;;;0.38;100.00
64713;BME280;51140;45.340;5.980;2023-02-12T10:03:02;99641.66;;;0.61;100.00
64713;BME280;51140;45.340;5.980;2023-02-12T10:05:38;99633.44;;;0.87;100.00
64713;BME280;51140;45.340;5.980;2023-02-12T10:27:01;99507.22;;;5.90;100.00
64713;BME280;51140;45.340;5.980;2023-02-12T10:29:31;99531.16;;;6.09;100.00
64713;BME280;51140;45.340;5.980;2023-02-12T10:34:31;99565.06;;;6.58;100.00
64713;BME280;51140;45.340;5.980;2023-02-12T10:37:24;99591.47;;;6.84;100.00
64713;BME280;51140;45.340;5.980;2023-02-12T10:39:59;99589.72;;;6.86;100.00
64713;BME280;51140;45.340;5.980;2023-02-12T10:42:43;99614.81;;;7.41;100.00
64713;BME280;51140;45.340;5.980;2023-02-12T10:45:19;99624.47;;;7.33;100.00
64713;BME280;51140;45.340;5.980;2023-02-12T10:47:45;99651.41;;;7.20;100.00
64713;BME280;51140;45.340;5.980;2023-02-12T10:50:31;99639.56;;;7.62;100.00
64713;BME280;51140;45.340;5.980;2023-02-12T10:53:02;99667.91;;;7.74;100.00
64713;BME280;51140;45.340;5.980;2023-02-12T10:55:34;99623.38;;;7.46;100.00
64713;BME280;51140;45.340;5.980;2023-02-12T10:58:03;99626.63;;;7.59;100.00
64713;BME280;51140;45.340;5.980;2023-02-12T11:00:35;99650.75;;;7.66;100.00
64713;BME280;51140;45.340;5.980;2023-02-12T11:05:37;99628.38;;;7.59;100.00
64713;BME280;51140;45.340;5.980;2023-02-12T11:08:04;99606.31;;;7.33;100.00
64713;BME280;51140;45.340;5.980;2023-02-12T11:10:36;99598.56;;;7.32;100.00
64713;BME280;51140;45.340;5.980;2023-02-12T11:13:02;99593.53;;;7.21;100.00
64713;BME280;51140;45.340;5.980;2023-02-12T11:15:48;99553.00;;;7.15;100.00
64713;BME280;51140;45.340;5.980;2023-02-12T11:18:25;99533.53;;;6.91;100.00
64713;BME280;51140;45.340;5.980;2023-02-12T11:20:54;99520.72;;;6.82;100.00
64713;BME280;51140;45.340;5.980;2023-02-12T11:23:30;99512.78;;;6.93;100.00
64713;BME280;51140;45.340;5.980;2023-02-12T11:29:18;99502.56;;;7.36;100.00
64713;BME280;51140;45.340;5.980;2023-02-12T11:32:03;99541.16;;;7.53;100.00
64713;BME280;51140;45.340;5.980;2023-02-12T11:34:28;99538.19;;;7.76;100.00
64713;BME280;51140;45.340;5.980;2023-02-12T11:36:55;99547.44;;;7.89;100.00
64713;BME280;51140;45.340;5.980;2023-02-12T11:39:33;99563.28;;;8.20;100.00
64713;BME280;51140;45.340;5.980;2023-02-12T11:42:20;99578.69;;;8.29;100.00
64713;BME280;51140;45.340;5.980;2023-02-12T11:44:50;99581.81;;;8.48;100.00
64713;BME280;51140;45.340;5.980;2023-02-12T11:47:25;99585.88;;;8.61;100.00
64713;BME280;51140;45.340;5.980;2023-02-12T11:52:34;99625.75;;;9.00;100.00
64713;BME280;51140;45.340;5.980;2023-02-12T11:55:10;99606.00;;;9.30;100.00
64713;BME280;51140;45.340;5.980;2023-02-12T11:57:43;99609.25;;;9.40;100.00
64713;BME280;51140;45.340;5.980;2023-02-12T12:00:20;99645.69;;;9.76;100.00
64713;BME280;51140;45.340;5.980;2023-02-12T12:02:56;99669.25;;;10.05;100.00
64713;BME280;51140;45.340;5.980;2023-02-12T12:05:26;99726.91;;;10.25;100.00
64713;BME280;51140;45.340;5.980;2023-02-12T12:07:59;99746.88;;;10.91;100.00
64713;BME280;51140;45.340;5.980;2023-02-12T12:10:40;99798.53;;;11.41;100.00
64713;BME280;51140;45.340;5.980;2023-02-12T12:13:15;99827.34;;;11.97;100.00
64713;BME280;51140;45.340;5.980;2023-02-12T12:15:47;99874.63;;;11.87;100.00
64713;BME280;51140;45.340;5.980;2023-02-12T12:18:49;99818.56;;;10.75;100.00
64713;BME280;51140;45.340;5.980;2023-02-12T12:21:49;99836.78;;;11.42;100.00
64713;BME280;51140;45.340;5.980;2023-02-12T12:27:02;99859.81;;;12.17;100.00
64713;BME280;51140;45.340;5.980;2023-02-12T12:29:44;99861.72;;;12.39;100.00
64713;BME280;51140;45.340;5.980;2023-02-12T12:32:15;99881.31;;;12.26;100.00
64713;BME280;51140;45.340;5.980;2023-02-12T12:34:43;99887.00;;;13.44;100.00
64713;BME280;51140;45.340;5.980;2023-02-12T12:40:10;99915.75;;;13.45;100.00
64713;BME280;51140;45.340;5.980;2023-02-12T12:43:00;99920.22;;;13.90;100.00
64713;BME280;51140;45.340;5.980;2023-02-12T12:50:56;99938.34;;;14.65;100.00
64713;BME280;51140;45.340;5.980;2023-02-12T12:59:27;99912.78;;;10.95;100.00
64713;BME280;51140;45.340;5.980;2023-02-12T13:07:55;99845.66;;;10.32;100.00
64713;BME280;51140;45.340;5.980;2023-02-12T13:13:21;99804.41;;;10.14;100.00
64713;BME280;51140;45.340;5.980;2023-02-12T13:21:36;99727.50;;;10.01;100.00
64713;BME280;51140;45.340;5.980;2023-02-12T13:29:21;99751.78;;;10.01;100.00
64713;BME280;51140;45.340;5.980;2023-02-12T13:32:01;99744.56;;;10.13;100.00
64713;BME280;51140;45.340;5.980;2023-02-12T13:34:29;99767.38;;;10.03;100.00
64713;BME280;51140;45.340;5.980;2023-02-12T13:36:59;99755.13;;;10.07;100.00
64713;BME280;51140;45.340;5.980;2023-02-12T13:39:36;99732.56;;;10.07;100.00
64713;BME280;51140;45.340;5.980;2023-02-12T13:44:38;99696.50;;;10.26;100.00
64713;BME280;51140;45.340;5.980;2023-02-12T13:52:20;99719.84;;;10.30;100.00
64713;BME280;51140;45.340;5.980;2023-02-12T13:57:26;99727.56;;;10.33;100.00
64713;BME280;51140;45.340;5.980;2023-02-12T13:59:53;99725.72;;;10.37;100.00
64713;BME280;51140;45.340;5.980;2023-02-12T14:05:20;99744.00;;;10.35;100.00
64713;BME280;51140;45.340;5.980;2023-02-12T14:07:53;99736.06;;;10.42;100.00
64713;BME280;51140;45.340;5.980;2023-02-12T14:10:23;99740.47;;;10.38;100.00
64713;BME280;51140;45.340;5.980;2023-02-12T14:12:51;99721.25;;;10.44;100.00
64713;BME280;51140;45.340;5.980;2023-02-12T14:20:30;99780.22;;;10.46;100.00
64713;BME280;51140;45.340;5.980;2023-02-12T14:23:21;99779.47;;;10.43;100.00
64713;BME280;51140;45.340;5.980;2023-02-12T14:26:16;99773.22;;;10.48;100.00
64713;BME280;51140;45.340;5.980;2023-02-12T14:29:00;99745.22;;;10.56;100.00
64713;BME280;51140;45.340;5.980;2023-02-12T14:31:37;99782.63;;;10.54;100.00
64713;BME280;51140;45.340;5.980;2023-02-12T14:36:41;99785.25;;;10.54;100.00
64713;BME280;51140;45.340;5.980;2023-02-12T14:46:42;99740.09;;;10.53;100.00
64713;BME280;51140;45.340;5.980;2023-02-12T14:49:20;99764.44;;;10.52;100.00
64713;BME280;51140;45.340;5.980;2023-02-12T15:00:37;99761.91;;;10.49;100.00
64713;BME280;51140;45.340;5.980;2023-02-12T15:03:16;99753.31;;;10.46;100.00
64713;BME280;51140;45.340;5.980;2023-02-12T15:05:49;99742.94;;;10.44;100.00
64713;BME280;51140;45.340;5.980;2023-02-12T15:08:35;99754.38;;;10.37;100.00
64713;BME280;51140;45.340;5.980;2023-02-12T15:11:18;99754.47;;;10.34;100.00
64713;BME280;51140;45.340;5.980;2023-02-12T15:13:56;99734.69;;;10.27;100.00
64713;BME280;51140;45.340;5.980;2023-02-12T15:17:02;99716.38;;;10.30;100.00
64713;BME280;51140;45.340;5.980;2023-02-12T15:22:28;99719.09;;;10.25;100.00
64713;BME280;51140;45.340;5.980;2023-02-12T15:25:31;99740.81;;;10.24;100.00
64713;BME280;51140;45.340;5.980;2023-02-12T15:28:15;99732.19;;;10.22;100.00
64713;BME280;51140;45.340;5.980;2023-02-12T15:30:43;99738.31;;;10.21;100.00
64713;BME280;51140;45.340;5.980;2023-02-12T15:33:27;99723.66;;;10.16;100.00
64713;BME280;51140;45.340;5.980;2023-02-12T15:35:53;99729.16;;;10.03;100.00
64713;BME280;51140;45.340;5.980;2023-02-12T15:38:21;99716.19;;;10.00;100.00
64713;BME280;51140;45.340;5.980;2023-02-12T15:40:56;99705.78;;;10.00;100.00